createdAt,value
2023-01-29T00:00:11.392Z,101835.16
2023-01-29T00:05:27.069Z,101836.34
2023-01-29T00:10:29.503Z,101834.56
2023-01-29T00:15:31.027Z,101845.94
2023-01-29T00:20:32.529Z,101857.97
2023-01-29T00:25:34.005Z,101863.03
2023-01-29T00:30:36.964Z,101852.63
2023-01-29T00:35:40.406Z,101851.22
2023-01-29T00:40:41.858Z,101845.69
2023-01-29T00:45:43.422Z,101849.03
2023-01-29T00:50:44.937Z,101849.41
2023-01-29T00:55:46.355Z,101843.75
2023-01-29T01:00:48.779Z,101826.31
2023-01-29T01:05:50.343Z,101828.34
2023-01-29T01:10:59.300Z,101813.38
2023-01-29T01:16:00.960Z,101799.03
2023-01-29T01:21:02.466Z,101790.63
2023-01-29T01:26:08.834Z,101777.53
2023-01-29T01:31:11.872Z,101767.56
2023-01-29T01:36:13.531Z,101764.47
2023-01-29T01:41:18.545Z,101761.97
2023-01-29T01:46:20.434Z,101764.03
2023-01-29T01:51:25.326Z,101760.66
2023-01-29T01:56:31.929Z,101756.78
2023-01-29T02:01:33.539Z,101758.56
2023-01-29T02:06:36.960Z,101758.78
2023-01-29T02:11:38.591Z,101759.56
2023-01-29T02:16:39.989Z,101761.69
2023-01-29T02:21:44.226Z,101779.31
2023-01-29T02:27:34.120Z,101797.16
2023-01-29T02:32:40.509Z,101817.00
2023-01-29T02:38:11.117Z,101810.84
2023-01-29T02:43:15.616Z,101804.03
2023-01-29T02:48:23.755Z,101808.34
2023-01-29T02:53:32.384Z,101800.00
2023-01-29T02:58:45.806Z,101795.09
2023-01-29T03:03:52.954Z,101789.56
2023-01-29T03:08:59.571Z,101780.13
2023-01-29T03:14:15.728Z,101779.75
2023-01-29T03:19:46.752Z,101773.16
2023-01-29T03:24:52.107Z,101776.72
2023-01-29T03:29:56.526Z,101780.94
2023-01-29T03:35:03.305Z,101778.84
2023-01-29T03:40:07.029Z,101790.19
2023-01-29T03:45:34.670Z,101804.94
2023-01-29T03:50:56.757Z,101795.41
2023-01-29T03:56:02.821Z,101787.78
2023-01-29T04:01:23.193Z,101787.09
2023-01-29T04:06:29.838Z,101794.22
2023-01-29T04:11:34.464Z,101785.34
2023-01-29T04:16:41.027Z,101800.50
2023-01-29T04:21:43.525Z,101801.34
2023-01-29T04:26:47.644Z,101800.13
2023-01-29T04:31:57.955Z,101814.47
2023-01-29T04:37:11.470Z,101808.28
2023-01-29T04:42:24.884Z,101804.88
2023-01-29T04:47:41.397Z,101797.75
2023-01-29T04:53:07.207Z,101798.47
2023-01-29T04:58:18.926Z,101785.16
2023-01-29T05:03:24.583Z,101769.56
2023-01-29T05:08:29.389Z,101735.56
2023-01-29T05:13:33.135Z,101740.28
2023-01-29T05:18:35.388Z,101754.69
2023-01-29T05:23:36.952Z,101762.88
2023-01-29T05:28:38.566Z,101778.59
2023-01-29T05:33:40.015Z,101782.06
2023-01-29T05:38:41.486Z,101779.97
2023-01-29T05:43:42.918Z,101785.75
2023-01-29T05:48:44.477Z,101780.38
2023-01-29T05:53:45.938Z,101796.19
2023-01-29T05:58:47.423Z,101789.44
2023-01-29T06:03:49.043Z,101778.06
2023-01-29T06:08:50.644Z,101775.53
2023-01-29T06:13:52.172Z,101776.53
2023-01-29T06:18:53.901Z,101773.22
2023-01-29T06:23:55.503Z,101766.25
2023-01-29T06:28:56.976Z,101753.59
2023-01-29T06:33:58.658Z,101744.47
2023-01-29T06:39:00.232Z,101739.28
2023-01-29T06:44:01.842Z,101749.00
2023-01-29T06:49:03.566Z,101745.13
2023-01-29T06:54:05.386Z,101751.88
2023-01-29T06:59:06.894Z,101780.44
2023-01-29T07:04:08.531Z,101782.09
2023-01-29T07:09:14.813Z,101785.34
2023-01-29T07:14:16.364Z,101784.56
2023-01-29T07:19:17.820Z,101788.13
2023-01-29T07:24:19.481Z,101802.19
2023-01-29T07:29:21.089Z,101787.13
2023-01-29T07:34:22.499Z,101777.63
2023-01-29T07:39:24.030Z,101779.66
2023-01-29T07:44:25.450Z,101786.88
2023-01-29T07:49:26.939Z,101773.88
2023-01-29T07:54:28.488Z,101789.38
2023-01-29T07:59:29.995Z,101797.88
2023-01-29T08:04:31.452Z,101801.19
2023-01-29T08:09:32.952Z,101812.63
2023-01-29T08:14:34.505Z,101816.06
2023-01-29T08:19:35.945Z,101819.50
2023-01-29T08:24:53.205Z,101823.53
2023-01-29T08:29:58.809Z,101836.88
2023-01-29T08:35:00.264Z,101819.84
2023-01-29T08:40:01.735Z,101808.72
2023-01-29T08:45:03.582Z,101830.22
2023-01-29T08:50:05.532Z,101821.50
2023-01-29T08:55:07.493Z,101812.22
2023-01-29T09:00:11.311Z,101818.44
2023-01-29T09:05:12.895Z,101818.44
2023-01-29T09:10:15.575Z,101828.72
2023-01-29T09:15:17.295Z,101822.75
2023-01-29T09:20:19.498Z,101824.56
2023-01-29T09:25:21.006Z,101836.53
2023-01-29T09:30:22.687Z,101836.38
2023-01-29T09:35:24.590Z,101837.16
2023-01-29T09:40:48.792Z,101837.75
2023-01-29T09:45:56.589Z,101851.50
2023-01-29T09:51:03.075Z,101852.53
2023-01-29T09:56:10.960Z,101860.91
2023-01-29T10:01:24.095Z,101851.22
2023-01-29T10:07:01.592Z,101853.94
2023-01-29T10:12:23.894Z,101850.09
2023-01-29T10:17:34.299Z,101831.63
2023-01-29T10:22:44.004Z,101801.66
2023-01-29T10:27:50.614Z,101784.72
2023-01-29T10:32:54.002Z,101774.97
2023-01-29T10:38:02.504Z,101765.84
2023-01-29T10:43:13.596Z,101771.75
2023-01-29T10:48:44.682Z,101759.56
2023-01-29T10:53:57.379Z,101748.16
2023-01-29T10:59:03.999Z,101712.94
2023-01-29T11:04:12.025Z,101718.13
2023-01-29T11:09:25.274Z,101713.34
2023-01-29T11:14:51.133Z,101701.19
2023-01-29T11:19:54.245Z,101707.25
2023-01-29T11:25:17.858Z,101705.00
2023-01-29T11:30:25.418Z,101695.53
2023-01-29T11:35:27.069Z,101699.56
2023-01-29T11:40:37.131Z,101698.22
2023-01-29T11:45:39.833Z,101685.28
2023-01-29T11:50:41.378Z,101678.28
2023-01-29T11:55:50.759Z,101671.38
2023-01-29T12:00:53.950Z,101637.53
2023-01-29T12:06:01.082Z,101624.06
2023-01-29T12:11:12.414Z,101623.97
2023-01-29T12:16:36.418Z,101617.16
2023-01-29T12:21:43.889Z,101605.72
2023-01-29T12:26:55.119Z,101594.34
2023-01-29T12:32:08.113Z,101586.34
2023-01-29T12:37:25.659Z,101568.31
2023-01-29T12:42:27.933Z,101560.94
2023-01-29T12:47:41.954Z,101553.59
2023-01-29T12:52:52.858Z,101542.59
2023-01-29T12:58:00.116Z,101552.78
2023-01-29T13:03:54.464Z,101532.88
2023-01-29T13:09:01.807Z,101521.16
2023-01-29T13:14:12.290Z,101517.53
2023-01-29T13:19:19.057Z,101510.84
2023-01-29T13:24:24.598Z,101509.69
2023-01-29T13:29:28.978Z,101506.56
2023-01-29T13:34:37.023Z,101501.75
2023-01-29T13:39:46.047Z,101491.09
2023-01-29T13:44:50.435Z,101500.03
2023-01-29T13:49:57.643Z,101494.38
2023-01-29T13:55:04.574Z,101496.78
2023-01-29T14:00:26.612Z,101478.84
2023-01-29T14:05:30.916Z,101487.31
2023-01-29T14:10:34.573Z,101486.91
2023-01-29T14:15:37.421Z,101477.75
2023-01-29T14:20:58.988Z,101478.63
2023-01-29T14:26:02.937Z,101455.22
2023-01-29T14:31:05.809Z,101451.69
2023-01-29T14:36:12.942Z,101449.88
2023-01-29T14:41:29.561Z,101438.66
2023-01-29T14:46:52.820Z,101444.63
2023-01-29T14:51:56.784Z,101451.09
2023-01-29T14:57:02.402Z,101434.59
2023-01-29T15:02:24.007Z,101425.88
2023-01-29T15:07:32.183Z,101421.19
2023-01-29T15:12:50.912Z,101409.84
2023-01-29T15:18:13.093Z,101400.47
2023-01-29T15:23:28.983Z,101396.97
2023-01-29T15:28:32.486Z,101389.72
2023-01-29T15:33:36.474Z,101377.38
2023-01-29T15:38:38.057Z,101381.06
2023-01-29T15:43:44.492Z,101374.38
2023-01-29T15:48:48.445Z,101366.78
2023-01-29T15:54:04.178Z,101367.81
2023-01-29T15:59:09.672Z,101373.34
2023-01-29T16:04:15.406Z,101383.22
2023-01-29T16:09:21.060Z,101399.75
2023-01-29T16:14:24.867Z,101407.78
2023-01-29T16:19:28.942Z,101414.91
2023-01-29T16:24:32.420Z,101419.22
2023-01-29T16:29:35.614Z,101427.16
2023-01-29T16:34:43.124Z,101441.22
2023-01-29T16:39:47.430Z,101445.63
2023-01-29T16:44:59.966Z,101439.66
2023-01-29T16:50:20.020Z,101447.88
2023-01-29T16:55:22.932Z,101456.66
2023-01-29T17:00:27.610Z,101453.19
2023-01-29T17:05:31.690Z,101451.75
2023-01-29T17:10:34.229Z,101456.34
2023-01-29T17:15:45.506Z,101460.50
2023-01-29T17:20:47.556Z,101474.06
2023-01-29T17:25:49.518Z,101478.84
2023-01-29T17:31:05.244Z,101468.84
2023-01-29T17:36:10.612Z,101470.59
2023-01-29T17:41:33.150Z,101452.34
2023-01-29T17:46:34.615Z,101452.84
2023-01-29T17:51:36.104Z,101459.00
2023-01-29T17:56:37.589Z,101440.78
2023-01-29T18:01:42.421Z,101428.78
2023-01-29T18:06:47.037Z,101427.19
2023-01-29T18:11:49.946Z,101431.22
2023-01-29T18:16:51.447Z,101419.38
2023-01-29T18:21:53.532Z,101408.00
2023-01-29T18:26:55.051Z,101408.19
2023-01-29T18:31:56.948Z,101424.81
2023-01-29T18:36:58.805Z,101417.44
2023-01-29T18:42:00.655Z,101412.38
2023-01-29T18:47:02.346Z,101410.59
2023-01-29T18:52:04.046Z,101401.53
2023-01-29T18:57:14.107Z,101404.63
2023-01-29T19:02:27.273Z,101392.16
2023-01-29T19:07:28.768Z,101383.38
2023-01-29T19:12:30.367Z,101376.13
2023-01-29T19:17:31.805Z,101369.19
2023-01-29T19:22:33.221Z,101372.50
2023-01-29T19:27:34.725Z,101368.38
2023-01-29T19:32:36.335Z,101366.28
2023-01-29T19:37:37.742Z,101361.75
2023-01-29T19:42:39.166Z,101343.13
2023-01-29T19:47:42.228Z,101341.97
2023-01-29T19:52:51.959Z,101334.50
2023-01-29T19:57:54.715Z,101319.50
2023-01-29T20:02:57.207Z,101312.41
2023-01-29T20:07:58.634Z,101311.63
2023-01-29T20:13:00.143Z,101316.38
2023-01-29T20:18:01.614Z,101294.75
2023-01-29T20:23:03.090Z,101291.22
2023-01-29T20:28:06.633Z,101283.31
2023-01-29T20:33:08.644Z,101274.53
2023-01-29T20:38:10.161Z,101276.31
2023-01-29T20:43:11.591Z,101284.22
2023-01-29T20:48:13.296Z,101270.13
2023-01-29T20:53:15.198Z,101256.88
2023-01-29T20:58:16.758Z,101245.56
2023-01-29T21:03:18.171Z,101240.44
2023-01-29T21:08:20.261Z,101242.03
2023-01-29T21:13:21.873Z,101236.81
2023-01-29T21:18:23.743Z,101230.22
2023-01-29T21:23:25.337Z,101218.47
2023-01-29T21:28:26.977Z,101210.72
2023-01-29T21:33:28.681Z,101199.47
2023-01-29T21:38:30.788Z,101195.56
2023-01-29T21:43:32.342Z,101167.84
2023-01-29T21:48:33.860Z,101169.06
2023-01-29T21:53:35.563Z,101158.75
2023-01-29T21:58:36.958Z,101158.19
2023-01-29T22:03:38.646Z,101160.50
2023-01-29T22:08:40.243Z,101162.38
2023-01-29T22:13:41.828Z,101158.50
2023-01-29T22:18:43.255Z,101152.19
2023-01-29T22:23:48.578Z,101161.19
2023-01-29T22:28:50.006Z,101135.13
2023-01-29T22:33:51.451Z,101125.88
2023-01-29T22:38:52.943Z,101129.56
2023-01-29T22:43:54.407Z,101103.38
2023-01-29T22:48:55.847Z,101113.94
2023-01-29T22:53:57.720Z,101106.53
2023-01-29T22:59:00.337Z,101120.69
2023-01-29T23:04:01.817Z,101112.53
2023-01-29T23:09:03.399Z,101116.13
2023-01-29T23:14:04.849Z,101122.19
2023-01-29T23:19:06.440Z,101106.03
2023-01-29T23:24:08.359Z,101119.38
2023-01-29T23:29:10.412Z,101114.56
2023-01-29T23:34:11.957Z,101110.72
2023-01-29T23:39:13.372Z,101119.75
2023-01-29T23:44:14.822Z,101114.94
2023-01-29T23:49:16.315Z,101114.72
2023-01-29T23:54:17.972Z,101088.19
2023-01-29T23:59:19.581Z,101072.38
